Time;durP1;ratioP1;P1;durP2;ratioP2;P2;SDS_P1;SDS_P2;PMS_P1;PMS_P2;Temp;Humidity;BMP_temperature;BMP_pressure;BME280_temperature;BME280_humidity;BME280_pressure;Samples;Min_cycle;Max_cycle;Signal;HPM_P1;HPM_P2
2022/10/15 00:02:13;;;;;;;18.42;13.32;;;;;;;-142.37;100.00;59669.53;5096077;28;20063;-72
2022/10/15 00:04:38;;;;;;;21.52;14.65;;;;;;;-142.37;100.00;59669.53;5114716;28;20035;-73
2022/10/15 00:07:04;;;;;;;21.00;13.13;;;;;;;-142.37;100.00;59669.53;5095842;28;20028;-72
2022/10/15 00:09:30;;;;;;;19.85;13.02;;;;;;;-142.37;100.00;59669.53;5115588;28;20138;-73
2022/10/15 00:11:55;;;;;;;23.58;14.40;;;;;;;-142.37;100.00;59669.53;5115573;28;20077;-74
2022/10/15 00:14:21;;;;;;;23.77;15.13;;;;;;;-142.37;100.00;59669.53;5115565;28;20063;-73
2022/10/15 00:16:47;;;;;;;23.80;15.20;;;;;;;-142.37;100.00;59669.53;5114114;28;20031;-73
2022/10/15 00:19:12;;;;;;;23.48;15.25;;;;;;;-142.37;100.00;59669.53;5095544;28;20028;-74
2022/10/15 00:21:38;;;;;;;24.05;15.63;;;;;;;-142.37;100.00;59669.53;5113755;28;20032;-73
2022/10/15 00:24:05;;;;;;;26.90;15.40;;;;;;;-142.37;100.00;59669.53;5095551;28;20069;-73
2022/10/15 00:26:30;;;;;;;27.27;15.60;;;;;;;-142.37;100.00;59669.53;5095775;28;20024;-73
2022/10/15 00:29:00;;;;;;;28.98;16.05;;;;;;;-142.37;100.00;59669.53;5095685;28;20023;-73
2022/10/15 00:31:29;;;;;;;25.05;15.95;;;;;;;-142.37;100.00;59669.53;5113710;28;20111;-73
2022/10/15 00:33:56;;;;;;;31.38;15.90;;;;;;;-142.37;100.00;59669.53;5095536;28;20428;-73
2022/10/15 00:36:28;;;;;;;22.63;14.38;;;;;;;-142.37;100.00;59669.53;5095356;28;20545;-73
2022/10/15 00:38:54;;;;;;;18.88;12.45;;;;;;;-142.37;100.00;59669.53;5095446;28;20126;-74
2022/10/15 00:41:33;;;;;;;18.48;12.65;;;;;;;-142.37;100.00;59669.53;5113708;28;20038;-73
2022/10/15 00:44:01;;;;;;;19.38;12.77;;;;;;;-142.37;100.00;59669.53;5095475;28;20035;-74
2022/10/15 00:46:38;;;;;;;17.80;10.65;;;;;;;-142.37;100.00;59669.53;5095348;28;20381;-72
2022/10/15 00:49:15;;;;;;;22.15;12.63;;;;;;;-142.37;100.00;59669.53;5094877;28;20031;-74
2022/10/15 00:51:48;;;;;;;16.00;10.48;;;;;;;-142.37;100.00;59669.53;5112933;28;20028;-74
2022/10/15 00:54:15;;;;;;;18.73;10.50;;;;;;;-142.37;100.00;59669.53;5095065;28;20114;-75
2022/10/15 00:56:43;;;;;;;15.52;9.77;;;;;;;-142.37;100.00;59669.53;5113442;28;20051;-74
2022/10/15 00:59:11;;;;;;;13.10;7.80;;;;;;;-142.37;100.00;59669.53;5112930;28;20062;-72
2022/10/15 01:01:37;;;;;;;12.65;8.05;;;;;;;-142.37;100.00;59669.53;5113123;28;20106;-74
2022/10/15 01:04:06;;;;;;;13.13;9.27;;;;;;;-142.37;100.00;59669.53;5094702;28;20023;-74
2022/10/15 01:06:32;;;;;;;11.52;7.78;;;;;;;-142.37;100.00;59669.53;5112912;28;20038;-73
2022/10/15 01:08:58;;;;;;;14.95;9.40;;;;;;;-142.37;100.00;59669.53;5113062;28;20110;-70
2022/10/15 01:11:42;;;;;;;12.00;7.07;;;;;;;-142.37;100.00;59669.53;5113224;28;20500;-74
2022/10/15 01:14:27;;;;;;;10.13;7.80;;;;;;;-142.37;100.00;59669.53;5095104;28;20031;-74
2022/10/15 01:17:26;;;;;;;18.97;8.97;;;;;;;-142.37;100.00;59669.53;5097745;28;20058;-75
2022/10/15 01:20:33;;;;;;;15.02;7.78;;;;;;;-142.37;100.00;59669.53;5106484;28;20265;-73
2022/10/15 01:23:41;;;;;;;12.57;8.05;;;;;;;-142.37;100.00;59669.53;5104530;28;20127;-72
2022/10/15 01:26:53;;;;;;;11.05;7.90;;;;;;;-142.37;100.00;59669.53;5094369;28;20024;-74
2022/10/15 01:29:55;;;;;;;13.10;8.02;;;;;;;-142.37;100.00;59669.53;5112689;28;20119;-74
2022/10/15 01:32:33;;;;;;;13.55;7.47;;;;;;;-142.37;100.00;59669.53;5094249;28;20088;-72
2022/10/15 01:35:15;;;;;;;15.75;8.10;;;;;;;-142.37;100.00;59669.53;5094207;28;20373;-74
2022/10/15 01:37:51;;;;;;;10.90;7.97;;;;;;;-142.37;100.00;59669.53;5112767;28;20080;-73
2022/10/15 01:40:26;;;;;;;9.52;7.38;;;;;;;-142.37;100.00;59669.53;5094361;28;20028;-75
2022/10/15 01:43:08;;;;;;;13.13;8.60;;;;;;;-142.37;100.00;59669.53;5112687;28;20467;-73
2022/10/15 01:45:45;;;;;;;12.57;7.53;;;;;;;-142.37;100.00;59669.53;5112721;28;20536;-71
2022/10/15 01:48:12;;;;;;;10.80;7.57;;;;;;;-142.37;100.00;59669.53;5112705;28;20035;-72
2022/10/15 01:50:43;;;;;;;14.32;8.55;;;;;;;-142.37;100.00;59669.53;5094427;28;20036;-73
2022/10/15 01:53:12;;;;;;;9.38;7.72;;;;;;;-142.37;100.00;59669.53;5094210;28;20036;-74
2022/10/15 01:55:41;;;;;;;12.68;7.28;;;;;;;-142.37;100.00;59669.53;5112400;28;20483;-73
2022/10/15 01:58:10;;;;;;;11.43;7.75;;;;;;;-142.37;100.00;59669.53;5094470;28;20052;-75
2022/10/15 02:00:37;;;;;;;9.90;6.47;;;;;;;-142.37;100.00;59669.53;5112618;28;20373;-74
2022/10/15 02:03:03;;;;;;;10.25;6.70;;;;;;;-142.37;100.00;59669.53;5112169;28;20023;-74
2022/10/15 02:05:35;;;;;;;9.20;5.78;;;;;;;-142.37;100.00;59669.53;5094218;28;20070;-71
2022/10/15 02:08:21;;;;;;;10.55;6.97;;;;;;;-142.37;100.00;59669.53;5093974;28;20039;-73
2022/10/15 02:11:05;;;;;;;9.05;6.03;;;;;;;-142.37;100.00;59669.53;5094155;28;20123;-75
2022/10/15 02:14:00;;;;;;;11.15;7.53;;;;;;;-142.37;100.00;59669.53;5094170;28;20491;-72
2022/10/15 02:16:48;;;;;;;11.07;7.43;;;;;;;-142.37;100.00;59669.53;5093333;28;20043;-73
2022/10/15 02:19:22;;;;;;;10.38;6.82;;;;;;;-142.37;100.00;59669.53;5116114;28;20034;-72
2022/10/15 02:21:55;;;;;;;12.15;7.97;;;;;;;-142.37;100.00;59669.53;5098238;28;20038;-75
2022/10/15 02:24:24;;;;;;;12.13;7.13;;;;;;;-142.37;100.00;59669.53;5116346;28;20031;-75
2022/10/15 02:26:53;;;;;;;8.52;5.75;;;;;;;-142.37;100.00;59669.53;5098023;28;20134;-72
2022/10/15 02:29:22;;;;;;;9.77;5.43;;;;;;;-142.37;100.00;59669.53;5097799;28;20487;-72
2022/10/15 02:31:50;;;;;;;9.82;6.50;;;;;;;-142.37;100.00;59669.53;5116170;28;20121;-73
2022/10/15 02:34:21;;;;;;;12.18;6.78;;;;;;;-142.37;100.00;59669.53;5097919;28;20028;-74
2022/10/15 02:36:48;;;;;;;11.60;6.10;;;;;;;-142.37;100.00;59669.53;5097826;28;20077;-73
2022/10/15 02:39:19;;;;;;;11.93;7.32;;;;;;;-142.37;100.00;59669.53;5115591;28;20027;-74
2022/10/15 02:41:45;;;;;;;8.50;6.03;;;;;;;-142.37;100.00;59669.53;5097817;28;20051;-75
2022/10/15 02:44:11;;;;;;;9.73;7.10;;;;;;;-142.37;100.00;59669.53;5097825;28;20024;-75
2022/10/15 02:46:37;;;;;;;12.10;6.63;;;;;;;-142.37;100.00;59669.53;5097688;28;20084;-73
2022/10/15 02:49:02;;;;;;;11.73;7.22;;;;;;;-142.37;100.00;59669.53;5097304;28;20028;-75
2022/10/15 02:51:31;;;;;;;13.60;7.10;;;;;;;-142.37;100.00;59669.53;5097432;28;20123;-74
2022/10/15 02:53:57;;;;;;;13.05;7.55;;;;;;;-142.37;100.00;59669.53;5097003;28;20053;-72
2022/10/15 02:56:23;;;;;;;9.73;5.93;;;;;;;-142.37;100.00;59669.53;5097296;28;20067;-74
2022/10/15 02:58:49;;;;;;;9.07;5.90;;;;;;;-142.37;100.00;59669.53;5116278;28;20027;-72
2022/10/15 03:01:14;;;;;;;7.05;5.05;;;;;;;-142.37;100.00;59669.53;5116718;28;20024;-72
2022/10/15 03:03:40;;;;;;;8.10;5.18;;;;;;;-142.37;100.00;59669.53;5118068;28;20023;-74
2022/10/15 03:06:06;;;;;;;8.48;6.00;;;;;;;-142.37;100.00;59669.53;5098330;28;20063;-75
2022/10/15 03:08:31;;;;;;;8.77;6.60;;;;;;;-142.37;100.00;59669.53;5116030;28;20039;-74
2022/10/15 03:11:00;;;;;;;9.05;6.30;;;;;;;-142.37;100.00;59669.53;5115515;28;20028;-73
2022/10/15 03:13:26;;;;;;;11.73;5.97;;;;;;;-142.37;100.00;59669.53;5115660;28;20341;-73
2022/10/15 03:15:52;;;;;;;8.30;6.10;;;;;;;-142.37;100.00;59669.53;5115357;28;20475;-73
2022/10/15 03:18:18;;;;;;;12.93;6.07;;;;;;;-142.37;100.00;59669.53;5115408;28;20090;-72
2022/10/15 03:20:46;;;;;;;10.77;5.65;;;;;;;-142.37;100.00;59669.53;5096894;28;20545;-72
2022/10/15 03:23:11;;;;;;;8.50;5.63;;;;;;;-142.37;100.00;59669.53;5096624;28;20533;-75
2022/10/15 03:25:37;;;;;;;9.98;6.63;;;;;;;-142.37;100.00;59669.53;5115371;28;20051;-74
2022/10/15 03:28:03;;;;;;;8.20;5.10;;;;;;;-142.37;100.00;59669.53;5114961;28;20035;-71
2022/10/15 03:30:28;;;;;;;10.02;5.30;;;;;;;-142.37;100.00;59669.53;5096883;28;20070;-72
2022/10/15 03:32:54;;;;;;;6.82;5.13;;;;;;;-142.37;100.00;59669.53;5096617;28;20028;-74
2022/10/15 03:35:20;;;;;;;9.23;4.47;;;;;;;-142.37;100.00;59669.53;5096372;28;20020;-73
2022/10/15 03:37:45;;;;;;;7.38;4.10;;;;;;;-142.37;100.00;59669.53;5096422;28;20020;-73
2022/10/15 03:40:11;;;;;;;7.60;4.50;;;;;;;-142.37;100.00;59669.53;5096875;28;20123;-75
2022/10/15 03:42:36;;;;;;;6.70;4.75;;;;;;;-142.37;100.00;59669.53;5115020;28;20495;-75
2022/10/15 03:45:02;;;;;;;7.35;4.75;;;;;;;-142.37;100.00;59669.53;5114793;28;20038;-73
2022/10/15 03:47:28;;;;;;;7.00;3.90;;;;;;;-142.37;100.00;59669.53;5096516;28;20126;-72
2022/10/15 03:49:53;;;;;;;7.57;4.82;;;;;;;-142.37;100.00;59669.53;5114538;28;20058;-74
2022/10/15 03:52:19;;;;;;;5.20;3.67;;;;;;;-142.37;100.00;59669.53;5096048;28;20035;-74
2022/10/15 03:54:45;;;;;;;10.48;4.75;;;;;;;-142.37;100.00;59669.53;5096572;28;20041;-72
2022/10/15 03:57:10;;;;;;;7.95;5.00;;;;;;;-142.37;100.00;59669.53;5084934;28;20481;-73
2022/10/15 03:59:36;;;;;;;9.23;5.25;;;;;;;-142.37;100.00;59669.53;5073667;28;20478;-72
2022/10/15 04:02:01;;;;;;;13.77;4.95;;;;;;;-142.37;100.00;59669.53;5074149;28;20036;-73
2022/10/15 04:04:27;;;;;;;7.55;5.55;;;;;;;-142.37;100.00;59669.53;5072484;28;20042;-75
2022/10/15 04:06:53;;;;;;;7.32;5.25;;;;;;;-142.37;100.00;59669.53;5072273;28;20025;-73
2022/10/15 04:09:18;;;;;;;8.48;5.32;;;;;;;-142.37;100.00;59669.53;5072302;28;20073;-74
2022/10/15 04:11:44;;;;;;;18.25;6.57;;;;;;;-142.37;100.00;59669.53;5072308;28;20123;-73
2022/10/15 04:14:10;;;;;;;7.55;5.43;;;;;;;-142.37;100.00;59669.53;5072349;28;20031;-74
2022/10/15 04:16:36;;;;;;;6.07;4.20;;;;;;;-142.37;100.00;59669.53;5073426;28;20027;-72
2022/10/15 04:19:01;;;;;;;9.88;5.00;;;;;;;-142.37;100.00;59669.53;5071964;28;20116;-74
2022/10/15 04:21:28;;;;;;;9.95;5.38;;;;;;;-142.37;100.00;59669.53;5072053;28;20025;-74
2022/10/15 04:23:53;;;;;;;15.13;6.30;;;;;;;-142.37;100.00;59669.53;5073797;28;20028;-73
2022/10/15 04:26:19;;;;;;;8.25;5.30;;;;;;;-142.37;100.00;59669.53;5072081;28;20029;-73
2022/10/15 04:28:47;;;;;;;11.55;6.22;;;;;;;-142.37;100.00;59669.53;5072244;28;20020;-73
2022/10/15 04:31:13;;;;;;;11.20;6.07;;;;;;;-142.37;100.00;59669.53;5071636;28;20446;-73
2022/10/15 04:33:38;;;;;;;14.15;7.50;;;;;;;-142.37;100.00;59669.53;5071901;28;20040;-74
2022/10/15 04:36:07;;;;;;;14.90;8.57;;;;;;;-142.37;100.00;59669.53;5071506;28;20492;-73
2022/10/15 04:38:33;;;;;;;15.40;7.55;;;;;;;-142.37;100.00;59669.53;5072878;28;20029;-74
2022/10/15 04:41:04;;;;;;;13.05;8.20;;;;;;;-142.37;100.00;59669.53;5072012;28;20032;-74
2022/10/15 04:43:30;;;;;;;14.50;9.93;;;;;;;-142.37;100.00;59669.53;5073462;28;20028;-74
2022/10/15 04:45:57;;;;;;;14.23;9.82;;;;;;;-142.37;100.00;59669.53;5072685;28;20040;-74
2022/10/15 04:48:23;;;;;;;20.40;10.20;;;;;;;-142.37;100.00;59669.53;5071409;28;20046;-73
2022/10/15 04:50:49;;;;;;;19.73;10.65;;;;;;;-142.37;100.00;59669.53;5072642;28;20093;-73
2022/10/15 04:53:15;;;;;;;19.35;10.77;;;;;;;-142.37;100.00;59669.53;5071210;28;20470;-73
2022/10/15 04:55:40;;;;;;;15.98;11.02;;;;;;;-142.37;100.00;59669.53;5071638;28;20033;-73
2022/10/15 04:58:06;;;;;;;16.50;10.68;;;;;;;-142.37;100.00;59669.53;5103746;28;20075;-73
2022/10/15 05:00:32;;;;;;;25.58;12.70;;;;;;;-142.37;100.00;59669.53;5095199;28;20043;-73
2022/10/15 05:02:57;;;;;;;19.63;12.43;;;;;;;-142.37;100.00;59669.53;5113093;28;20028;-74
2022/10/15 05:05:23;;;;;;;23.33;14.18;;;;;;;-142.37;100.00;59669.53;5112973;28;20054;-75
2022/10/15 05:07:49;;;;;;;20.17;12.93;;;;;;;-142.37;100.00;59669.53;5112997;28;20506;-73
2022/10/15 05:10:14;;;;;;;18.98;11.82;;;;;;;-142.37;100.00;59669.53;5094703;28;20023;-73
2022/10/15 05:12:40;;;;;;;19.85;11.60;;;;;;;-142.37;100.00;59669.53;5113140;28;20059;-73
2022/10/15 05:15:06;;;;;;;21.08;14.93;;;;;;;-142.37;100.00;59669.53;5112916;28;20028;-71
2022/10/15 05:17:32;;;;;;;26.33;14.75;;;;;;;-142.37;100.00;59669.53;5094678;28;20039;-74
2022/10/15 05:19:57;;;;;;;26.17;17.08;;;;;;;-142.37;100.00;59669.53;5094634;28;20087;-75
2022/10/15 05:22:23;;;;;;;30.77;18.52;;;;;;;-142.37;100.00;59669.53;5094565;28;20034;-73
2022/10/15 05:24:48;;;;;;;35.00;19.65;;;;;;;-142.37;100.00;59669.53;5094655;28;20031;-73
2022/10/15 05:27:14;;;;;;;36.13;20.13;;;;;;;-142.37;100.00;59669.53;5094367;28;20069;-74
2022/10/15 05:29:41;;;;;;;32.13;19.15;;;;;;;-142.37;100.00;59669.53;5094780;28;20028;-74
2022/10/15 05:32:06;;;;;;;34.28;18.25;;;;;;;-142.37;100.00;59669.53;5094415;28;20430;-74
2022/10/15 05:34:32;;;;;;;29.90;16.70;;;;;;;-142.37;100.00;59669.53;5094329;28;20035;-72
2022/10/15 05:36:58;;;;;;;29.88;17.55;;;;;;;-142.37;100.00;59669.53;5112303;28;20059;-73
2022/10/15 05:39:24;;;;;;;32.55;19.17;;;;;;;-142.37;100.00;59669.53;5112783;28;20023;-73
2022/10/15 05:41:49;;;;;;;31.17;18.20;;;;;;;-142.37;100.00;59669.53;5094476;28;20051;-75
2022/10/15 05:44:15;;;;;;;29.08;18.25;;;;;;;-142.37;100.00;59669.53;5094446;28;20039;-74
2022/10/15 05:46:40;;;;;;;31.85;18.08;;;;;;;-142.37;100.00;59669.53;5094305;28;20024;-73
2022/10/15 05:49:06;;;;;;;33.70;18.65;;;;;;;-142.37;100.00;59669.53;5093633;28;20055;-73
2022/10/15 05:51:32;;;;;;;36.28;20.40;;;;;;;-142.37;100.00;59669.53;5112212;28;20545;-72
2022/10/15 05:53:58;;;;;;;37.58;20.50;;;;;;;-142.37;100.00;59669.53;5112902;28;20023;-73
2022/10/15 05:56:24;;;;;;;34.67;21.38;;;;;;;-142.37;100.00;59669.53;5094369;28;20081;-74
2022/10/15 05:58:51;;;;;;;32.92;18.00;;;;;;;-142.37;100.00;59669.53;5094386;28;20092;-73
2022/10/15 06:01:17;;;;;;;37.00;20.80;;;;;;;-142.37;100.00;59669.53;5112441;28;20032;-73
2022/10/15 06:03:43;;;;;;;42.65;22.02;;;;;;;-142.37;100.00;59669.53;5112379;28;20077;-73
2022/10/15 06:06:17;;;;;;;37.33;19.15;;;;;;;-142.37;100.00;59669.53;5112398;28;20040;-74
2022/10/15 06:08:43;;;;;;;40.92;20.45;;;;;;;-142.37;100.00;59669.53;5093684;28;20042;-74
2022/10/15 06:11:09;;;;;;;33.20;19.15;;;;;;;-142.37;100.00;59669.53;5111693;28;20061;-73
2022/10/15 06:13:37;;;;;;;34.40;18.35;;;;;;;-142.37;100.00;59669.53;5093869;28;20028;-74
2022/10/15 06:16:03;;;;;;;31.90;16.65;;;;;;;-142.37;100.00;59669.53;5112172;28;20031;-74
2022/10/15 06:18:28;;;;;;;33.25;19.25;;;;;;;-142.37;100.00;59669.53;5093975;28;20035;-73
2022/10/15 06:20:54;;;;;;;37.60;19.95;;;;;;;-142.37;100.00;59669.53;5112686;28;20031;-74
2022/10/15 06:23:20;;;;;;;33.95;19.35;;;;;;;-142.37;100.00;59669.53;5093867;28;20032;-74
2022/10/15 06:25:48;;;;;;;36.78;23.38;;;;;;;-142.37;100.00;59669.53;5112355;28;20490;-75
2022/10/15 06:28:13;;;;;;;39.85;22.85;;;;;;;-142.37;100.00;59669.53;5093962;28;20020;-74
2022/10/15 06:30:39;;;;;;;37.78;24.55;;;;;;;-142.37;100.00;59669.53;5093635;28;20038;-72
2022/10/15 06:33:05;;;;;;;32.83;20.02;;;;;;;-142.37;100.00;59669.53;5112006;28;20035;-75
2022/10/15 06:35:34;;;;;;;41.05;24.48;;;;;;;-142.37;100.00;59669.53;5093843;28;20516;-74
2022/10/15 06:38:00;;;;;;;38.03;22.00;;;;;;;-142.37;100.00;59669.53;5111945;28;20024;-73
2022/10/15 06:40:26;;;;;;;36.42;22.75;;;;;;;-142.37;100.00;59669.53;5111924;28;20053;-71
2022/10/15 06:42:52;;;;;;;36.22;23.30;;;;;;;-142.37;100.00;59669.53;5093625;28;20031;-74
2022/10/15 06:45:17;;;;;;;32.92;20.02;;;;;;;-142.37;100.00;59669.53;5093375;28;20023;-74
2022/10/15 06:47:43;;;;;;;33.92;19.90;;;;;;;-142.37;100.00;59669.53;5093627;28;20160;-74
2022/10/15 06:50:08;;;;;;;31.73;19.75;;;;;;;-142.37;100.00;59669.53;5112022;28;20041;-73
2022/10/15 06:52:34;;;;;;;31.65;20.20;;;;;;;-142.37;100.00;59669.53;5111808;28;20036;-75
2022/10/15 06:55:00;;;;;;;29.70;20.88;;;;;;;-142.37;100.00;59669.53;5111547;28;20035;-73
2022/10/15 06:57:29;;;;;;;31.67;19.63;;;;;;;-142.37;100.00;59669.53;5093158;28;20043;-74
2022/10/15 06:59:55;;;;;;;34.25;18.95;;;;;;;-142.37;100.00;59669.53;5111514;28;20024;-76
2022/10/15 07:02:22;;;;;;;30.77;18.65;;;;;;;-142.37;100.00;59669.53;5112047;28;20369;-76
2022/10/15 07:04:48;;;;;;;28.08;18.05;;;;;;;-142.37;100.00;59669.53;5115645;28;20492;-73
2022/10/15 07:07:14;;;;;;;27.77;19.05;;;;;;;-142.37;100.00;59669.53;5114924;28;20413;-75
2022/10/15 07:09:39;;;;;;;31.33;20.23;;;;;;;-142.37;100.00;59669.53;5097078;28;20063;-75
2022/10/15 07:12:06;;;;;;;28.00;16.95;;;;;;;-142.37;100.00;59669.53;5115236;28;20103;-74
2022/10/15 07:14:31;;;;;;;26.13;19.92;;;;;;;-142.37;100.00;59669.53;5115205;28;20056;-73
2022/10/15 07:16:58;;;;;;;32.88;17.58;;;;;;;-142.37;100.00;59669.53;5115036;28;20036;-74
2022/10/15 07:19:24;;;;;;;26.13;17.27;;;;;;;-142.37;100.00;59669.53;5115546;28;20027;-74
2022/10/15 07:21:50;;;;;;;24.98;18.05;;;;;;;-142.37;100.00;59669.53;5115341;28;20026;-73
2022/10/15 07:24:15;;;;;;;26.23;18.70;;;;;;;-142.37;100.00;59669.53;5096777;28;20023;-74
2022/10/15 07:26:41;;;;;;;25.58;17.83;;;;;;;-142.37;100.00;59669.53;5115013;28;20035;-73
2022/10/15 07:29:07;;;;;;;24.98;15.05;;;;;;;-142.37;100.00;59669.53;5114601;28;20028;-72
2022/10/15 07:31:33;;;;;;;30.42;16.83;;;;;;;-142.37;100.00;59669.53;5114889;28;20061;-72
2022/10/15 07:33:59;;;;;;;28.98;17.27;;;;;;;-142.37;100.00;59669.53;5096674;28;20035;-73
2022/10/15 07:36:25;;;;;;;28.77;19.48;;;;;;;-142.37;100.00;59669.53;5114766;28;20023;-72
2022/10/15 07:38:50;;;;;;;26.02;17.75;;;;;;;-142.37;100.00;59669.53;5115195;28;20036;-73
2022/10/15 07:41:16;;;;;;;30.20;18.88;;;;;;;-142.37;100.00;59669.53;5114839;28;20073;-72
2022/10/15 07:43:42;;;;;;;25.10;17.40;;;;;;;-142.37;100.00;59669.53;5096621;28;20506;-73
2022/10/15 07:46:09;;;;;;;25.85;19.50;;;;;;;-142.37;100.00;59669.53;5115352;28;20023;-73
2022/10/15 07:48:35;;;;;;;28.83;15.98;;;;;;;-142.37;100.00;59669.53;5114699;28;20037;-74
2022/10/15 07:51:05;;;;;;;33.13;18.73;;;;;;;-142.37;100.00;59669.53;5114414;28;20449;-71
2022/10/15 07:53:32;;;;;;;29.73;19.00;;;;;;;-142.37;100.00;59669.53;5114219;28;20088;-72
2022/10/15 07:56:06;;;;;;;24.48;17.52;;;;;;;-142.37;100.00;59669.53;5095868;28;20035;-72
2022/10/15 07:58:36;;;;;;;25.52;14.93;;;;;;;-142.37;100.00;59669.53;5114474;28;20050;-72
2022/10/15 08:01:07;;;;;;;27.17;17.20;;;;;;;-142.37;100.00;59669.53;5114094;28;20072;-74
2022/10/15 08:03:32;;;;;;;24.48;17.05;;;;;;;-142.37;100.00;59669.53;5095823;28;20031;-72
2022/10/15 08:06:03;;;;;;;26.02;17.48;;;;;;;-142.37;100.00;59669.53;5113997;28;20024;-72
2022/10/15 08:08:29;;;;;;;27.55;16.85;;;;;;;-142.37;100.00;59669.53;5095521;28;20096;-70
2022/10/15 08:10:54;;;;;;;24.70;17.30;;;;;;;-142.37;100.00;59669.53;5113728;28;20519;-71
2022/10/15 08:13:20;;;;;;;26.80;17.75;;;;;;;-142.37;100.00;59669.53;5095562;28;20035;-71
2022/10/15 08:15:46;;;;;;;26.98;17.65;;;;;;;-142.37;100.00;59669.53;5095497;28;20031;-70
2022/10/15 08:18:12;;;;;;;23.63;15.43;;;;;;;-142.37;100.00;59669.53;5113697;28;20067;-69
2022/10/15 08:20:38;;;;;;;24.65;15.43;;;;;;;-142.37;100.00;59669.53;5095211;28;20051;-71
2022/10/15 08:23:05;;;;;;;26.42;16.65;;;;;;;-142.37;100.00;59669.53;5113149;28;20455;-71
2022/10/15 08:25:31;;;;;;;28.00;16.85;;;;;;;-142.37;100.00;59669.53;5095333;28;20380;-71
2022/10/15 08:27:57;;;;;;;25.77;18.15;;;;;;;-142.37;100.00;59669.53;5113579;28;20035;-70
2022/10/15 08:30:23;;;;;;;25.10;13.13;;;;;;;-142.37;100.00;59669.53;5095322;28;20028;-70
2022/10/15 08:32:50;;;;;;;28.58;17.63;;;;;;;-142.37;100.00;59669.53;5113281;28;20039;-70
2022/10/15 08:35:15;;;;;;;29.30;18.70;;;;;;;-142.37;100.00;59669.53;5113439;28;20024;-70
2022/10/15 08:37:41;;;;;;;23.10;17.27;;;;;;;-142.37;100.00;59669.53;5113673;28;20031;-70
2022/10/15 08:40:11;;;;;;;21.48;17.90;;;;;;;-142.37;100.00;59669.53;5112226;28;20027;-70
2022/10/15 08:42:40;;;;;;;23.35;15.65;;;;;;;-142.37;100.00;59669.53;5112765;28;20031;-70
2022/10/15 08:45:18;;;;;;;31.58;15.18;;;;;;;-142.37;100.00;59669.53;5095149;28;20110;-70
2022/10/15 08:48:20;;;;;;;23.00;17.23;;;;;;;-142.37;100.00;59669.53;5114575;28;20034;-70
2022/10/15 08:51:00;;;;;;;27.05;19.23;;;;;;;-142.37;100.00;59669.53;5010226;28;20065;-70
2022/10/15 08:53:28;;;;;;;27.33;19.23;;;;;;;-142.37;100.00;59669.53;5102524;28;20457;-69
2022/10/15 08:55:59;;;;;;;25.02;17.55;;;;;;;-142.37;100.00;59669.53;5094789;28;20027;-68
2022/10/15 08:58:46;;;;;;;24.77;16.98;;;;;;;-142.37;100.00;59669.53;5113023;28;20073;-69
2022/10/15 09:01:47;;;;;;;28.02;18.08;;;;;;;-142.37;100.00;59669.53;5095046;28;20055;-71
2022/10/15 09:04:30;;;;;;;25.25;17.20;;;;;;;-142.37;100.00;59669.53;5094645;28;20486;-71
2022/10/15 09:07:06;;;;;;;24.55;16.63;;;;;;;-142.37;100.00;59669.53;5112871;28;20035;-71
2022/10/15 09:09:37;;;;;;;24.17;16.58;;;;;;;-142.37;100.00;59669.53;5112807;28;20046;-70
2022/10/15 09:12:32;;;;;;;22.58;16.60;;;;;;;-142.37;100.00;59669.53;5094332;28;20176;-70
2022/10/15 09:14:59;;;;;;;25.23;15.40;;;;;;;-142.37;100.00;59669.53;5055247;28;20074;-70
2022/10/15 09:17:30;;;;;;;23.13;16.35;;;;;;;-142.37;100.00;59669.53;5112755;28;20052;-70
2022/10/15 09:20:01;;;;;;;24.42;14.93;;;;;;;-142.37;100.00;59669.53;5094533;28;20023;-69
2022/10/15 09:22:29;;;;;;;22.30;15.40;;;;;;;-142.37;100.00;59669.53;5112635;28;20023;-71
2022/10/15 09:24:56;;;;;;;24.98;15.13;;;;;;;-142.37;100.00;59669.53;5112256;28;20077;-72
2022/10/15 09:27:37;;;;;;;25.33;16.65;;;;;;;-142.37;100.00;59669.53;5094017;28;20028;-70
2022/10/15 09:30:16;;;;;;;25.10;16.52;;;;;;;-142.37;100.00;59669.53;5094366;28;20494;-69
2022/10/15 09:33:01;;;;;;;24.70;12.50;;;;;;;-142.37;100.00;59669.53;5093684;28;20031;-71
2022/10/15 09:35:41;;;;;;;27.55;17.13;;;;;;;-142.37;100.00;59669.53;5094015;28;20031;-70
2022/10/15 09:38:43;;;;;;;21.85;14.43;;;;;;;-142.37;100.00;59669.53;5093426;28;20514;-70
2022/10/15 09:41:58;;;;;;;21.00;15.60;;;;;;;-142.37;100.00;59669.53;5094063;28;20031;-70
2022/10/15 09:44:31;;;;;;;25.30;15.65;;;;;;;-142.37;100.00;59669.53;5029207;28;20034;-69
2022/10/15 09:46:57;;;;;;;24.25;16.75;;;;;;;-142.37;100.00;59669.53;5080430;28;20067;-71
2022/10/15 09:49:26;;;;;;;21.70;15.23;;;;;;;-142.37;100.00;59669.53;5094141;28;20651;-69
2022/10/15 09:52:10;;;;;;;20.83;15.07;;;;;;;-142.37;100.00;59669.53;5112228;28;20136;-70
2022/10/15 09:54:55;;;;;;;21.67;14.93;;;;;;;-142.37;100.00;59669.53;5093549;28;20024;-70
2022/10/15 09:57:22;;;;;;;24.25;15.55;;;;;;;-142.37;100.00;59669.53;5080304;28;20641;-69
2022/10/15 09:59:56;;;;;;;20.52;13.75;;;;;;;-142.37;100.00;59669.53;5071659;28;20036;-69
2022/10/15 10:02:25;;;;;;;22.42;15.10;;;;;;;-142.37;100.00;59669.53;5071533;28;20103;-69
2022/10/15 10:04:51;;;;;;;22.52;15.77;;;;;;;-142.37;100.00;59669.53;5070553;28;20025;-69
2022/10/15 10:07:32;;;;;;;21.40;13.70;;;;;;;-142.37;100.00;59669.53;5070954;28;20456;-69
2022/10/15 10:10:03;;;;;;;16.38;10.15;;;;;;;-142.37;100.00;59669.53;5069999;28;20036;-69
2022/10/15 10:12:35;;;;;;;23.15;15.77;;;;;;;-142.37;100.00;59669.53;5070911;28;20032;-68
2022/10/15 10:15:40;;;;;;;23.20;15.13;;;;;;;-142.37;100.00;59669.53;5071127;28;20036;-68
2022/10/15 10:18:19;;;;;;;22.67;16.50;;;;;;;-142.37;100.00;59669.53;5072780;28;20043;-69
2022/10/15 10:21:00;;;;;;;22.55;16.38;;;;;;;-142.37;100.00;59669.53;5075428;28;20032;-67
2022/10/15 10:23:34;;;;;;;22.95;14.65;;;;;;;-142.37;100.00;59669.53;5075884;28;20119;-70
2022/10/15 10:26:05;;;;;;;20.45;15.30;;;;;;;-142.37;100.00;59669.53;5071389;28;20024;-70
2022/10/15 10:28:43;;;;;;;25.85;17.15;;;;;;;-142.37;100.00;59669.53;5069070;28;20029;-70
2022/10/15 10:31:10;;;;;;;26.25;17.67;;;;;;;-142.37;100.00;59669.53;5070527;28;20028;-69
2022/10/15 10:33:38;;;;;;;28.70;18.60;;;;;;;-142.37;100.00;59669.53;5069647;28;20036;-69
2022/10/15 10:36:06;;;;;;;29.77;17.48;;;;;;;-142.37;100.00;59669.53;5069639;28;20029;-70
2022/10/15 10:38:37;;;;;;;23.90;17.58;;;;;;;-142.37;100.00;59669.53;5072837;28;20031;-69
2022/10/15 10:41:07;;;;;;;25.48;19.10;;;;;;;-142.37;100.00;59669.53;5074733;28;20039;-69
2022/10/15 10:43:35;;;;;;;27.25;19.35;;;;;;;-142.37;100.00;59669.53;5075370;28;20444;-69
2022/10/15 10:46:13;;;;;;;32.67;18.42;;;;;;;-142.37;100.00;59669.53;5072899;28;20477;-69
2022/10/15 10:48:42;;;;;;;28.35;18.38;;;;;;;-142.37;100.00;59669.53;5073965;28;20029;-69
2022/10/15 10:51:11;;;;;;;29.75;20.52;;;;;;;-142.37;100.00;59669.53;5072943;28;20119;-70
2022/10/15 10:53:57;;;;;;;28.63;19.63;;;;;;;-142.37;100.00;59669.53;5074899;28;20479;-71
2022/10/15 10:56:43;;;;;;;29.27;20.00;;;;;;;-142.37;100.00;59669.53;5076884;28;20032;-71
2022/10/15 10:59:25;;;;;;;28.25;18.75;;;;;;;-142.37;100.00;59669.53;5114809;28;20027;-69
2022/10/15 11:01:51;;;;;;;29.00;18.00;;;;;;;-142.37;100.00;59669.53;5114905;28;20391;-70
2022/10/15 11:04:31;;;;;;;29.92;20.40;;;;;;;-142.37;100.00;59669.53;5097003;28;20024;-71
2022/10/15 11:07:05;;;;;;;29.00;21.40;;;;;;;-142.37;100.00;59669.53;5114204;28;20030;-71
2022/10/15 11:09:46;;;;;;;30.63;19.05;;;;;;;-142.37;100.00;59669.53;5114305;28;20464;-70
2022/10/15 11:12:20;;;;;;;34.70;21.55;;;;;;;-142.37;100.00;59669.53;5096138;28;20039;-69